Portada
METAR-TAF:

METAR-TAF

Aeroports :

Lió, França

latitud: 45-43N, longitud: 004-57E, altitud: 200 m

Observació

L'informe es va fer fa 26 minuts, a les 05:00 UTC
Vent 2 kt del Sud-Est
Temperatura 13°C
Humitat 82%
Pressió 1017 hPa
Visibilitat 10 km o més
sense núvols per sota de 1500 mi sense presència de cumulonimbus.

METAR: LFLY 160500Z AUTO 14002KT CAVOK 13/10 Q1017 NOSIG

Hora: 07:26 (05:26 UTC)

Pronòstic

L'informe es va fer fa 6 hores i 26 minuts, a les 23:00 UTC
Pronòstic vàlid del 16 a les 00 UTC al 16 a les 24 UTC
Vent 5 kt del Sud
Visibilitat 10 km o més
sense núvols per sota de 1500 mi sense presència de cumulonimbus.
Evolucionant progressivament
l' 16 a les 11 UTC al 16 a les 14 UTC
Vent 5 kt del Nord-Est

TAF: LFLY 152300Z 1600/1624 19005KT CAVOK BECMG 1611/1614 05005KT

Observacions i pronòstics meteorològics de més de 4000 aeroports (METAR i TAF).

Les estacions disponibles són els punts grocs i vermells al mapa.

Posi el ratolí al punt desitjat per veure el nom de l'estació.

Feu clic per veure les observacions i els pronòstics meteorològics.

Per canviar el mapa: feu clic els botons verds amb una creu de color negre per apropar; al botó verd amb un guió per allunyar la imatge; o en les fletxes verdes per a mapes adjacents.


METAR-TAF: